sensor_id;sensor_type;location;lat;lon;timestamp;pressure;altitude;pressure_sealevel;temperature;humidity
66164;BME280;52962;51.088;3.096;2022-08-06T00:00:17;102375.34;;;14.40;100.00
66164;BME280;52962;51.088;3.096;2022-08-06T00:02:52;102378.84;;;14.39;100.00
66164;BME280;52962;51.088;3.096;2022-08-06T00:05:21;102378.97;;;14.43;100.00
66164;BME280;52962;51.088;3.096;2022-08-06T00:07:55;102371.88;;;14.42;100.00
66164;BME280;52962;51.088;3.096;2022-08-06T00:10:28;102376.16;;;14.38;100.00
66164;BME280;52962;51.088;3.096;2022-08-06T00:12:58;102377.78;;;14.33;100.00
66164;BME280;52962;51.088;3.096;2022-08-06T00:15:31;102378.50;;;14.27;100.00
66164;BME280;52962;51.088;3.096;2022-08-06T00:18:19;102386.25;;;14.21;100.00
66164;BME280;52962;51.088;3.096;2022-08-06T00:20:49;102384.47;;;14.20;100.00
66164;BME280;52962;51.088;3.096;2022-08-06T00:23:18;102382.72;;;14.21;100.00
66164;BME280;52962;51.088;3.096;2022-08-06T00:25:50;102379.22;;;14.22;100.00
66164;BME280;52962;51.088;3.096;2022-08-06T00:28:21;102387.22;;;14.23;100.00
66164;BME280;52962;51.088;3.096;2022-08-06T00:30:59;102388.91;;;14.21;100.00
66164;BME280;52962;51.088;3.096;2022-08-06T00:33:37;102394.13;;;14.18;100.00
66164;BME280;52962;51.088;3.096;2022-08-06T00:36:23;102388.72;;;14.15;100.00
66164;BME280;52962;51.088;3.096;2022-08-06T00:38:56;102394.88;;;14.14;100.00
66164;BME280;52962;51.088;3.096;2022-08-06T00:41:26;102401.94;;;14.14;100.00
66164;BME280;52962;51.088;3.096;2022-08-06T00:44:13;102408.88;;;14.10;100.00
66164;BME280;52962;51.088;3.096;2022-08-06T00:46:56;102408.75;;;14.05;100.00
66164;BME280;52962;51.088;3.096;2022-08-06T00:49:25;102414.84;;;14.03;100.00
66164;BME280;52962;51.088;3.096;2022-08-06T00:52:13;102416.44;;;13.98;100.00
66164;BME280;52962;51.088;3.096;2022-08-06T00:54:45;102411.91;;;13.94;100.00
66164;BME280;52962;51.088;3.096;2022-08-06T00:57:15;102410.88;;;13.89;100.00
66164;BME280;52962;51.088;3.096;2022-08-06T00:59:49;102409.06;;;13.88;100.00
66164;BME280;52962;51.088;3.096;2022-08-06T01:02:17;102412.59;;;13.88;100.00
66164;BME280;52962;51.088;3.096;2022-08-06T01:04:49;102409.91;;;13.87;100.00
66164;BME280;52962;51.088;3.096;2022-08-06T01:07:17;102414.25;;;13.85;100.00
66164;BME280;52962;51.088;3.096;2022-08-06T01:09:47;102411.56;;;13.83;100.00
66164;BME280;52962;51.088;3.096;2022-08-06T01:12:25;102407.91;;;13.80;100.00
66164;BME280;52962;51.088;3.096;2022-08-06T01:15:03;102406.88;;;13.74;100.00
66164;BME280;52962;51.088;3.096;2022-08-06T01:17:47;102411.16;;;13.71;100.00
66164;BME280;52962;51.088;3.096;2022-08-06T01:20:33;102412.81;;;13.67;100.00
66164;BME280;52962;51.088;3.096;2022-08-06T01:23:47;102415.31;;;13.63;100.00
66164;BME280;52962;51.088;3.096;2022-08-06T01:26:32;102415.16;;;13.58;100.00
66164;BME280;52962;51.088;3.096;2022-08-06T01:29:09;102413.38;;;13.57;100.00
66164;BME280;52962;51.088;3.096;2022-08-06T01:31:44;102413.31;;;13.56;100.00
66164;BME280;52962;51.088;3.096;2022-08-06T01:34:20;102404.47;;;13.55;100.00
66164;BME280;52962;51.088;3.096;2022-08-06T01:37:01;102404.34;;;13.51;100.00
66164;BME280;52962;51.088;3.096;2022-08-06T01:39:32;102404.31;;;13.49;100.00
66164;BME280;52962;51.088;3.096;2022-08-06T01:42:21;102406.00;;;13.47;100.00
66164;BME280;52962;51.088;3.096;2022-08-06T01:45:06;102410.41;;;13.47;100.00
66164;BME280;52962;51.088;3.096;2022-08-06T01:47:36;102414.00;;;13.49;100.00
66164;BME280;52962;51.088;3.096;2022-08-06T01:50:22;102405.94;;;13.46;100.00
66164;BME280;52962;51.088;3.096;2022-08-06T01:52:55;102406.78;;;13.45;100.00
66164;BME280;52962;51.088;3.096;2022-08-06T01:55:28;102411.09;;;13.41;100.00
66164;BME280;52962;51.088;3.096;2022-08-06T01:58:21;102407.38;;;13.36;100.00
66164;BME280;52962;51.088;3.096;2022-08-06T02:00:58;102408.22;;;13.35;100.00
66164;BME280;52962;51.088;3.096;2022-08-06T02:03:31;102402.78;;;13.30;100.00
66164;BME280;52962;51.088;3.096;2022-08-06T02:06:19;102406.28;;;13.29;100.00
66164;BME280;52962;51.088;3.096;2022-08-06T02:08:56;102410.78;;;13.32;100.00
66164;BME280;52962;51.088;3.096;2022-08-06T02:11:49;102401.88;;;13.30;100.00
66164;BME280;52962;51.088;3.096;2022-08-06T02:14:32;102398.25;;;13.26;100.00
66164;BME280;52962;51.088;3.096;2022-08-06T02:17:03;102397.28;;;13.24;100.00
66164;BME280;52962;51.088;3.096;2022-08-06T02:19:40;102392.00;;;13.24;100.00
66164;BME280;52962;51.088;3.096;2022-08-06T02:22:26;102398.09;;;13.22;100.00
66164;BME280;52962;51.088;3.096;2022-08-06T02:24:57;102398.94;;;13.21;100.00
66164;BME280;52962;51.088;3.096;2022-08-06T02:27:35;102405.06;;;13.20;100.00
66164;BME280;52962;51.088;3.096;2022-08-06T02:30:18;102402.22;;;13.15;100.00
66164;BME280;52962;51.088;3.096;2022-08-06T02:33:02;102404.72;;;13.10;100.00
66164;BME280;52962;51.088;3.096;2022-08-06T02:35:32;102397.63;;;13.09;100.00
66164;BME280;52962;51.088;3.096;2022-08-06T02:38:07;102401.13;;;13.08;100.00
66164;BME280;52962;51.088;3.096;2022-08-06T02:40:43;102403.69;;;13.07;100.00
66164;BME280;52962;51.088;3.096;2022-08-06T02:43:15;102402.81;;;13.06;100.00
66164;BME280;52962;51.088;3.096;2022-08-06T02:45:54;102409.88;;;13.07;100.00
66164;BME280;52962;51.088;3.096;2022-08-06T02:48:28;102413.34;;;13.05;100.00
66164;BME280;52962;51.088;3.096;2022-08-06T02:51:01;102416.88;;;13.05;100.00
66164;BME280;52962;51.088;3.096;2022-08-06T02:53:56;102416.75;;;13.02;100.00
66164;BME280;52962;51.088;3.096;2022-08-06T02:56:35;102417.56;;;13.00;100.00
66164;BME280;52962;51.088;3.096;2022-08-06T02:59:13;102416.53;;;12.96;100.00
66164;BME280;52962;51.088;3.096;2022-08-06T03:01:47;102415.66;;;12.96;100.00
66164;BME280;52962;51.088;3.096;2022-08-06T03:04:19;102413.91;;;12.96;100.00
66164;BME280;52962;51.088;3.096;2022-08-06T03:07:02;102418.25;;;12.94;100.00
66164;BME280;52962;51.088;3.096;2022-08-06T03:09:52;102421.66;;;12.92;100.00
66164;BME280;52962;51.088;3.096;2022-08-06T03:12:22;102421.63;;;12.90;100.00
66164;BME280;52962;51.088;3.096;2022-08-06T03:14:57;102418.81;;;12.86;100.00
66164;BME280;52962;51.088;3.096;2022-08-06T03:17:38;102431.13;;;12.85;100.00
66164;BME280;52962;51.088;3.096;2022-08-06T03:20:10;102431.97;;;12.84;100.00
66164;BME280;52962;51.088;3.096;2022-08-06T03:22:44;102425.66;;;12.81;100.00
66164;BME280;52962;51.088;3.096;2022-08-06T03:25:15;102419.50;;;12.80;100.00
66164;BME280;52962;51.088;3.096;2022-08-06T03:27:50;102428.25;;;12.79;100.00
66164;BME280;52962;51.088;3.096;2022-08-06T03:30:28;102428.19;;;12.77;100.00
66164;BME280;52962;51.088;3.096;2022-08-06T03:33:02;102432.66;;;12.78;100.00
66164;BME280;52962;51.088;3.096;2022-08-06T03:35:52;102433.44;;;12.76;100.00
66164;BME280;52962;51.088;3.096;2022-08-06T03:38:21;102430.78;;;12.76;100.00
66164;BME280;52962;51.088;3.096;2022-08-06T03:40:55;102433.38;;;12.74;100.00
66164;BME280;52962;51.088;3.096;2022-08-06T03:43:27;102433.31;;;12.73;100.00
66164;BME280;52962;51.088;3.096;2022-08-06T03:46:21;102432.38;;;12.71;100.00
66164;BME280;52962;51.088;3.096;2022-08-06T03:48:53;102442.09;;;12.72;100.00
66164;BME280;52962;51.088;3.096;2022-08-06T03:51:26;102435.00;;;12.71;100.00
66164;BME280;52962;51.088;3.096;2022-08-06T03:54:17;102434.91;;;12.68;100.00
66164;BME280;52962;51.088;3.096;2022-08-06T03:57:01;102436.59;;;12.66;100.00
66164;BME280;52962;51.088;3.096;2022-08-06T03:59:38;102437.53;;;12.68;100.00
66164;BME280;52962;51.088;3.096;2022-08-06T04:02:23;102437.53;;;12.68;100.00
66164;BME280;52962;51.088;3.096;2022-08-06T04:05:13;102434.06;;;12.69;100.00
66164;BME280;52962;51.088;3.096;2022-08-06T04:07:43;102443.78;;;12.70;100.00
66164;BME280;52962;51.088;3.096;2022-08-06T04:10:21;102450.03;;;12.72;100.00
66164;BME280;52962;51.088;3.096;2022-08-06T04:13:02;102443.00;;;12.72;100.00
66164;BME280;52962;51.088;3.096;2022-08-06T04:15:53;102446.47;;;12.71;100.00
66164;BME280;52962;51.088;3.096;2022-08-06T04:18:24;102444.78;;;12.73;100.00
66164;BME280;52962;51.088;3.096;2022-08-06T04:20:55;102443.06;;;12.74;100.00
66164;BME280;52962;51.088;3.096;2022-08-06T04:23:45;102443.06;;;12.74;100.00
66164;BME280;52962;51.088;3.096;2022-08-06T04:26:16;102436.88;;;12.73;100.00
66164;BME280;52962;51.088;3.096;2022-08-06T04:28:47;102440.41;;;12.74;100.00
66164;BME280;52962;51.088;3.096;2022-08-06T04:31:25;102440.41;;;12.74;100.00
66164;BME280;52962;51.088;3.096;2022-08-06T04:34:18;102440.53;;;12.77;100.00
66164;BME280;52962;51.088;3.096;2022-08-06T04:36:54;102436.19;;;12.79;100.00
66164;BME280;52962;51.088;3.096;2022-08-06T04:39:23;102442.44;;;12.81;100.00
66164;BME280;52962;51.088;3.096;2022-08-06T04:42:11;102439.06;;;12.85;100.00
66164;BME280;52962;51.088;3.096;2022-08-06T04:44:41;102443.56;;;12.88;100.00
66164;BME280;52962;51.088;3.096;2022-08-06T04:47:10;102444.56;;;12.91;100.00
66164;BME280;52962;51.088;3.096;2022-08-06T04:49:46;102450.94;;;12.96;100.00
66164;BME280;52962;51.088;3.096;2022-08-06T04:52:32;102451.09;;;13.01;100.00
66164;BME280;52962;51.088;3.096;2022-08-06T04:55:18;102459.97;;;13.03;100.00
66164;BME280;52962;51.088;3.096;2022-08-06T04:57:59;102458.28;;;13.05;100.00
66164;BME280;52962;51.088;3.096;2022-08-06T05:00:30;102457.56;;;13.09;100.00
66164;BME280;52962;51.088;3.096;2022-08-06T05:03:18;102451.53;;;13.13;100.00
66164;BME280;52962;51.088;3.096;2022-08-06T05:06:10;102456.19;;;13.19;100.00
66164;BME280;52962;51.088;3.096;2022-08-06T05:08:43;102470.47;;;13.24;100.00
66164;BME280;52962;51.088;3.096;2022-08-06T05:11:23;102473.22;;;13.27;100.00
66164;BME280;52962;51.088;3.096;2022-08-06T05:13:54;102476.94;;;13.32;100.00
66164;BME280;52962;51.088;3.096;2022-08-06T05:16:27;102478.88;;;13.37;100.00
66164;BME280;52962;51.088;3.096;2022-08-06T05:18:58;102479.00;;;13.40;100.00
66164;BME280;52962;51.088;3.096;2022-08-06T05:21:48;102489.75;;;13.45;100.00
66164;BME280;52962;51.088;3.096;2022-08-06T05:24:37;102489.91;;;13.50;100.00
66164;BME280;52962;51.088;3.096;2022-08-06T05:27:27;102494.53;;;13.57;100.00
66164;BME280;52962;51.088;3.096;2022-08-06T05:30:15;102499.06;;;13.61;100.00
66164;BME280;52962;51.088;3.096;2022-08-06T05:32:44;102504.53;;;13.65;100.00
66164;BME280;52962;51.088;3.096;2022-08-06T05:35:16;102499.44;;;13.71;100.00
66164;BME280;52962;51.088;3.096;2022-08-06T05:37:44;102498.81;;;13.79;100.00
66164;BME280;52962;51.088;3.096;2022-08-06T05:40:30;102500.81;;;13.86;100.00
66164;BME280;52962;51.088;3.096;2022-08-06T05:43:23;102508.09;;;13.93;100.00
66164;BME280;52962;51.088;3.096;2022-08-06T05:46:12;102511.09;;;14.03;100.00
66164;BME280;52962;51.088;3.096;2022-08-06T05:48:47;102514.06;;;14.13;100.00
66164;BME280;52962;51.088;3.096;2022-08-06T05:51:24;102517.91;;;14.22;100.00
66164;BME280;52962;51.088;3.096;2022-08-06T05:54:13;102509.34;;;14.31;100.00
66164;BME280;52962;51.088;3.096;2022-08-06T05:56:43;102513.19;;;14.40;100.00
66164;BME280;52962;51.088;3.096;2022-08-06T05:59:23;102517.09;;;14.52;100.00
66164;BME280;52962;51.088;3.096;2022-08-06T06:02:13;102516.50;;;14.62;100.00
66164;BME280;52962;51.088;3.096;2022-08-06T06:04:45;102516.72;;;14.69;100.00
66164;BME280;52962;51.088;3.096;2022-08-06T06:07:35;102520.50;;;14.78;100.00
66164;BME280;52962;51.088;3.096;2022-08-06T06:10:24;102519.00;;;14.86;100.00
66164;BME280;52962;51.088;3.096;2022-08-06T06:12:53;102518.31;;;14.93;100.00
66164;BME280;52962;51.088;3.096;2022-08-06T06:15:23;102523.75;;;14.97;100.00
66164;BME280;52962;51.088;3.096;2022-08-06T06:18:18;102524.03;;;15.07;100.00
66164;BME280;52962;51.088;3.096;2022-08-06T06:21:04;102525.13;;;15.15;100.00
66164;BME280;52962;51.088;3.096;2022-08-06T06:23:46;102530.75;;;15.25;100.00
66164;BME280;52962;51.088;3.096;2022-08-06T06:26:24;102525.88;;;15.41;100.00
66164;BME280;52962;51.088;3.096;2022-08-06T06:29:04;102521.03;;;15.57;100.00
66164;BME280;52962;51.088;3.096;2022-08-06T06:31:43;102525.88;;;15.74;100.00
66164;BME280;52962;51.088;3.096;2022-08-06T06:34:41;102523.59;;;15.89;100.00
66164;BME280;52962;51.088;3.096;2022-08-06T06:37:19;102528.44;;;16.05;100.00
66164;BME280;52962;51.088;3.096;2022-08-06T06:39:58;102534.13;;;16.20;100.00
66164;BME280;52962;51.088;3.096;2022-08-06T06:42:53;102530.16;;;16.39;100.00
66164;BME280;52962;51.088;3.096;2022-08-06T06:45:32;102534.13;;;16.58;100.00
66164;BME280;52962;51.088;3.096;2022-08-06T06:48:28;102536.38;;;16.79;100.00
66164;BME280;52962;51.088;3.096;2022-08-06T06:51:03;102538.47;;;16.93;100.00
66164;BME280;52962;51.088;3.096;2022-08-06T06:53:42;102542.44;;;17.14;100.00
66164;BME280;52962;51.088;3.096;2022-08-06T06:56:36;102535.75;;;17.34;100.00
66164;BME280;52962;51.088;3.096;2022-08-06T06:59:11;102535.91;;;17.43;100.00
66164;BME280;52962;51.088;3.096;2022-08-06T07:01:44;102535.22;;;17.53;100.00
66164;BME280;52962;51.088;3.096;2022-08-06T07:04:23;102538.94;;;17.61;100.00
66164;BME280;52962;51.088;3.096;2022-08-06T07:06:57;102533.84;;;17.75;100.00
66164;BME280;52962;51.088;3.096;2022-08-06T07:09:35;102541.22;;;17.90;100.00
66164;BME280;52962;51.088;3.096;2022-08-06T07:12:09;102537.00;;;18.04;100.00
66164;BME280;52962;51.088;3.096;2022-08-06T07:14:47;102539.88;;;18.16;100.00
66164;BME280;52962;51.088;3.096;2022-08-06T07:17:27;102540.19;;;18.35;100.00
66164;BME280;52962;51.088;3.096;2022-08-06T07:20:19;102537.78;;;18.53;100.00
66164;BME280;52962;51.088;3.096;2022-08-06T07:22:55;102546.97;;;18.72;100.00
66164;BME280;52962;51.088;3.096;2022-08-06T07:25:45;102546.28;;;18.89;100.00
66164;BME280;52962;51.088;3.096;2022-08-06T07:28:22;102548.41;;;19.16;100.00
66164;BME280;52962;51.088;3.096;2022-08-06T07:30:54;102537.09;;;19.37;100.00
66164;BME280;52962;51.088;3.096;2022-08-06T07:33:31;102543.59;;;19.59;100.00
66164;BME280;52962;51.088;3.096;2022-08-06T07:36:23;102532.94;;;19.64;100.00
66164;BME280;52962;51.088;3.096;2022-08-06T07:38:55;102535.66;;;19.67;100.00
66164;BME280;52962;51.088;3.096;2022-08-06T07:41:27;102537.44;;;19.68;100.00
66164;BME280;52962;51.088;3.096;2022-08-06T07:44:15;102540.16;;;19.71;100.00
66164;BME280;52962;51.088;3.096;2022-08-06T07:46:54;102543.75;;;19.76;100.00
66164;BME280;52962;51.088;3.096;2022-08-06T07:49:26;102544.63;;;19.76;100.00
66164;BME280;52962;51.088;3.096;2022-08-06T07:52:19;102542.97;;;19.92;100.00
66164;BME280;52962;51.088;3.096;2022-08-06T07:54:53;102552.09;;;20.14;100.00
66164;BME280;52962;51.088;3.096;2022-08-06T07:57:21;102546.91;;;20.37;100.00
66164;BME280;52962;51.088;3.096;2022-08-06T07:59:52;102547.13;;;20.63;100.00
66164;BME280;52962;51.088;3.096;2022-08-06T08:02:21;102545.41;;;20.83;100.00
66164;BME280;52962;51.088;3.096;2022-08-06T08:04:56;102546.31;;;20.85;100.00
66164;BME280;52962;51.088;3.096;2022-08-06T08:07:44;102540.16;;;21.06;100.00
66164;BME280;52962;51.088;3.096;2022-08-06T08:10:24;102542.97;;;21.36;100.00
66164;BME280;52962;51.088;3.096;2022-08-06T08:12:55;102543.91;;;21.57;100.00
66164;BME280;52962;51.088;3.096;2022-08-06T08:15:29;102538.56;;;21.64;100.00
66164;BME280;52962;51.088;3.096;2022-08-06T08:17:58;102535.88;;;21.63;100.00
66164;BME280;52962;51.088;3.096;2022-08-06T08:20:28;102539.47;;;21.72;100.00
66164;BME280;52962;51.088;3.096;2022-08-06T08:23:05;102535.88;;;21.90;100.00
66164;BME280;52962;51.088;3.096;2022-08-06T08:25:50;102534.09;;;21.92;100.00
66164;BME280;52962;51.088;3.096;2022-08-06T08:28:18;102536.81;;;22.06;100.00
66164;BME280;52962;51.088;3.096;2022-08-06T08:30:46;102528.75;;;22.19;100.00
66164;BME280;52962;51.088;3.096;2022-08-06T08:33:16;102534.09;;;22.44;100.00
66164;BME280;52962;51.088;3.096;2022-08-06T08:35:45;102533.16;;;22.57;100.00
66164;BME280;52962;51.088;3.096;2022-08-06T08:38:27;102535.84;;;22.57;100.00
66164;BME280;52962;51.088;3.096;2022-08-06T08:40:56;102535.84;;;22.54;100.00
66164;BME280;52962;51.088;3.096;2022-08-06T08:43:30;102535.84;;;22.51;100.00
66164;BME280;52962;51.088;3.096;2022-08-06T08:46:21;102537.59;;;22.67;100.00
66164;BME280;52962;51.088;3.096;2022-08-06T08:48:58;102531.31;;;22.85;100.00
66164;BME280;52962;51.088;3.096;2022-08-06T08:51:31;102535.66;;;23.12;100.00
66164;BME280;52962;51.088;3.096;2022-08-06T08:54:13;102528.44;;;23.23;100.00
66164;BME280;52962;51.088;3.096;2022-08-06T08:56:43;102538.25;;;23.27;100.00
66164;BME280;52962;51.088;3.096;2022-08-06T08:59:32;102523.78;;;23.56;100.00
66164;BME280;52962;51.088;3.096;2022-08-06T09:02:20;102537.34;;;23.31;100.00
66164;BME280;52962;51.088;3.096;2022-08-06T09:04:50;102546.28;;;23.36;100.00
66164;BME280;52962;51.088;3.096;2022-08-06T09:07:20;102537.22;;;23.49;98.92
66164;BME280;52962;51.088;3.096;2022-08-06T09:10:04;102538.84;;;23.79;98.56
66164;BME280;52962;51.088;3.096;2022-08-06T09:12:35;102545.94;;;23.90;99.38
66164;BME280;52962;51.088;3.096;2022-08-06T09:15:14;102546.00;;;23.82;98.30
66164;BME280;52962;51.088;3.096;2022-08-06T09:17:44;102538.09;;;23.62;98.13
66164;BME280;52962;51.088;3.096;2022-08-06T09:20:33;102546.03;;;23.79;92.66
66164;BME280;52962;51.088;3.096;2022-08-06T09:23:02;102542.97;;;24.19;94.17
66164;BME280;52962;51.088;3.096;2022-08-06T09:25:42;102537.66;;;24.12;82.02
66164;BME280;52962;51.088;3.096;2022-08-06T09:28:32;102544.88;;;24.06;88.31
66164;BME280;52962;51.088;3.096;2022-08-06T09:31:06;102538.34;;;24.36;89.75
66164;BME280;52962;51.088;3.096;2022-08-06T09:33:54;102545.19;;;23.71;82.37
66164;BME280;52962;51.088;3.096;2022-08-06T09:36:43;102554.38;;;23.27;92.73
66164;BME280;52962;51.088;3.096;2022-08-06T09:39:11;102548.06;;;23.37;92.72
66164;BME280;52962;51.088;3.096;2022-08-06T09:41:50;102546.34;;;23.21;93.01
66164;BME280;52962;51.088;3.096;2022-08-06T09:44:19;102544.66;;;22.99;92.55
66164;BME280;52962;51.088;3.096;2022-08-06T09:47:03;102547.44;;;22.83;94.26
66164;BME280;52962;51.088;3.096;2022-08-06T09:49:44;102545.66;;;22.73;94.68
66164;BME280;52962;51.088;3.096;2022-08-06T09:52:26;102547.44;;;22.71;95.10
66164;BME280;52962;51.088;3.096;2022-08-06T09:54:53;102546.56;;;22.69;84.99
66164;BME280;52962;51.088;3.096;2022-08-06T09:57:24;102545.47;;;23.22;91.91
66164;BME280;52962;51.088;3.096;2022-08-06T10:00:02;102539.81;;;23.72;79.14
66164;BME280;52962;51.088;3.096;2022-08-06T10:02:39;102542.41;;;23.83;86.46
66164;BME280;52962;51.088;3.096;2022-08-06T10:05:17;102542.63;;;23.46;90.77
66164;BME280;52962;51.088;3.096;2022-08-06T10:07:47;102540.91;;;23.35;91.71
66164;BME280;52962;51.088;3.096;2022-08-06T10:10:18;102540.06;;;23.27;91.41
66164;BME280;52962;51.088;3.096;2022-08-06T10:13:12;102552.69;;;23.09;89.14
66164;BME280;52962;51.088;3.096;2022-08-06T10:15:41;102550.94;;;22.95;92.69
66164;BME280;52962;51.088;3.096;2022-08-06T10:18:33;102554.59;;;22.78;89.65
66164;BME280;52962;51.088;3.096;2022-08-06T10:21:22;102551.06;;;22.60;91.69
66164;BME280;52962;51.088;3.096;2022-08-06T10:23:54;102560.03;;;22.45;91.53
66164;BME280;52962;51.088;3.096;2022-08-06T10:26:25;102559.16;;;22.35;90.47
66164;BME280;52962;51.088;3.096;2022-08-06T10:29:02;102557.38;;;22.30;88.86
66164;BME280;52962;51.088;3.096;2022-08-06T10:31:31;102561.84;;;22.26;88.00
66164;BME280;52962;51.088;3.096;2022-08-06T10:34:00;102558.28;;;22.23;86.71
66164;BME280;52962;51.088;3.096;2022-08-06T10:36:35;102559.16;;;22.28;87.54
66164;BME280;52962;51.088;3.096;2022-08-06T10:39:06;102562.75;;;22.25;88.19
66164;BME280;52962;51.088;3.096;2022-08-06T10:41:55;102555.59;;;22.29;88.23
66164;BME280;52962;51.088;3.096;2022-08-06T10:44:30;102557.38;;;22.36;87.21
66164;BME280;52962;51.088;3.096;2022-08-06T10:47:04;102561.81;;;22.43;87.13
66164;BME280;52962;51.088;3.096;2022-08-06T10:49:33;102555.56;;;22.51;87.79
66164;BME280;52962;51.088;3.096;2022-08-06T10:52:21;102552.84;;;22.59;87.94
66164;BME280;52962;51.088;3.096;2022-08-06T10:54:50;102551.94;;;22.63;87.34
66164;BME280;52962;51.088;3.096;2022-08-06T10:57:18;102555.53;;;22.62;86.75
66164;BME280;52962;51.088;3.096;2022-08-06T11:00:04;102553.75;;;22.52;85.41
66164;BME280;52962;51.088;3.096;2022-08-06T11:02:38;102553.75;;;22.49;84.27
66164;BME280;52962;51.088;3.096;2022-08-06T11:05:26;102553.75;;;22.52;85.21
66164;BME280;52962;51.088;3.096;2022-08-06T11:08:24;102557.31;;;22.57;82.71
66164;BME280;52962;51.088;3.096;2022-08-06T11:11:32;102553.72;;;22.64;81.77
66164;BME280;52962;51.088;3.096;2022-08-06T11:14:07;102546.53;;;22.75;83.75
66164;BME280;52962;51.088;3.096;2022-08-06T11:16:55;102541.97;;;23.02;77.49
66164;BME280;52962;51.088;3.096;2022-08-06T11:19:41;102540.00;;;23.36;70.42
66164;BME280;52962;51.088;3.096;2022-08-06T11:22:31;102537.22;;;23.56;74.19
66164;BME280;52962;51.088;3.096;2022-08-06T11:25:01;102526.41;;;23.66;77.50
66164;BME280;52962;51.088;3.096;2022-08-06T11:27:51;102531.78;;;23.68;77.01
66164;BME280;52962;51.088;3.096;2022-08-06T11:30:37;102531.84;;;23.49;72.34
66164;BME280;52962;51.088;3.096;2022-08-06T11:33:08;102527.50;;;23.27;74.67
66164;BME280;52962;51.088;3.096;2022-08-06T11:35:42;102524.88;;;23.18;77.76
66164;BME280;52962;51.088;3.096;2022-08-06T11:41:48;102532.16;;;22.92;78.27
66164;BME280;52962;51.088;3.096;2022-08-06T11:44:25;102529.53;;;22.78;77.45
66164;BME280;52962;51.088;3.096;2022-08-06T11:47:12;102532.22;;;22.76;74.55
66164;BME280;52962;51.088;3.096;2022-08-06T11:49:43;102529.53;;;22.81;77.00
66164;BME280;52962;51.088;3.096;2022-08-06T11:52:42;102524.09;;;22.93;73.83
66164;BME280;52962;51.088;3.096;2022-08-06T11:55:14;102524.06;;;23.02;76.06
66164;BME280;52962;51.088;3.096;2022-08-06T11:57:50;102524.91;;;23.09;75.38
66164;BME280;52962;51.088;3.096;2022-08-06T12:00:21;102516.81;;;23.18;73.83
66164;BME280;52962;51.088;3.096;2022-08-06T12:02:56;102519.44;;;23.30;73.37
66164;BME280;52962;51.088;3.096;2022-08-06T12:05:44;102506.88;;;23.29;64.38
66164;BME280;52962;51.088;3.096;2022-08-06T12:08:25;102504.19;;;23.31;69.04
66164;BME280;52962;51.088;3.096;2022-08-06T12:11:35;102504.06;;;23.54;59.79
66164;BME280;52962;51.088;3.096;2022-08-06T12:14:04;102497.69;;;23.67;67.86
66164;BME280;52962;51.088;3.096;2022-08-06T12:16:55;102502.94;;;23.87;66.00
66164;BME280;52962;51.088;3.096;2022-08-06T12:19:29;102495.56;;;24.02;66.82
66164;BME280;52962;51.088;3.096;2022-08-06T12:22:00;102487.66;;;23.90;65.28
66164;BME280;52962;51.088;3.096;2022-08-06T12:24:29;102487.69;;;23.84;65.76
66164;BME280;52962;51.088;3.096;2022-08-06T12:27:18;102494.09;;;23.71;65.10
66164;BME280;52962;51.088;3.096;2022-08-06T12:30:00;102490.53;;;23.66;58.57
66164;BME280;52962;51.088;3.096;2022-08-06T12:32:30;102495.94;;;23.63;64.35
66164;BME280;52962;51.088;3.096;2022-08-06T12:35:00;102493.31;;;23.49;61.70
66164;BME280;52962;51.088;3.096;2022-08-06T12:37:35;102488.06;;;23.31;63.93
66164;BME280;52962;51.088;3.096;2022-08-06T12:40:14;102489.84;;;23.32;66.50
66164;BME280;52962;51.088;3.096;2022-08-06T12:42:53;102491.66;;;23.30;62.96
66164;BME280;52962;51.088;3.096;2022-08-06T12:45:22;102487.09;;;23.39;67.94
66164;BME280;52962;51.088;3.096;2022-08-06T12:48:11;102483.50;;;23.40;67.50
66164;BME280;52962;51.088;3.096;2022-08-06T12:50:43;102487.06;;;23.45;63.70
66164;BME280;52962;51.088;3.096;2022-08-06T12:53:15;102473.66;;;23.41;65.31
66164;BME280;52962;51.088;3.096;2022-08-06T12:55:48;102480.75;;;23.51;65.79
66164;BME280;52962;51.088;3.096;2022-08-06T12:58:25;102480.66;;;23.68;65.42
66164;BME280;52962;51.088;3.096;2022-08-06T13:01:11;102478.03;;;23.60;63.68
66164;BME280;52962;51.088;3.096;2022-08-06T13:03:45;102471.66;;;23.72;64.68
66164;BME280;52962;51.088;3.096;2022-08-06T13:06:22;102477.97;;;23.66;56.70
66164;BME280;52962;51.088;3.096;2022-08-06T13:08:59;102470.88;;;23.58;60.80
66164;BME280;52962;51.088;3.096;2022-08-06T13:11:34;102480.75;;;23.53;61.79
66164;BME280;52962;51.088;3.096;2022-08-06T13:14:08;102476.28;;;23.52;62.29
66164;BME280;52962;51.088;3.096;2022-08-06T13:16:46;102469.09;;;23.57;61.95
66164;BME280;52962;51.088;3.096;2022-08-06T13:19:23;102469.09;;;23.57;61.56
66164;BME280;52962;51.088;3.096;2022-08-06T13:22:05;102464.63;;;23.56;61.51
66164;BME280;52962;51.088;3.096;2022-08-06T13:24:38;102461.06;;;23.54;60.66
66164;BME280;52962;51.088;3.096;2022-08-06T13:27:31;102466.44;;;23.54;60.10
66164;BME280;52962;51.088;3.096;2022-08-06T13:30:02;102452.84;;;23.69;61.45
66164;BME280;52962;51.088;3.096;2022-08-06T13:32:51;102459.00;;;23.85;59.41
66164;BME280;52962;51.088;3.096;2022-08-06T13:35:25;102459.63;;;24.09;56.49
66164;BME280;52962;51.088;3.096;2022-08-06T13:37:56;102458.63;;;24.18;58.57
66164;BME280;52962;51.088;3.096;2022-08-06T13:40:45;102464.06;;;24.15;56.69
66164;BME280;52962;51.088;3.096;2022-08-06T13:43:34;102464.88;;;24.22;57.40